sensor_id;sensor_type;location;lat;lon;timestamp;temperature;humidity
7004;DHT22;3542;48.812;9.146;2023-03-01T00:01:24;-2.50;99.90
7004;DHT22;3542;48.812;9.146;2023-03-01T00:03:50;-2.50;99.90
7004;DHT22;3542;48.812;9.146;2023-03-01T00:06:17;-2.40;99.90
7004;DHT22;3542;48.812;9.146;2023-03-01T00:08:42;-2.40;99.90
7004;DHT22;3542;48.812;9.146;2023-03-01T00:11:29;-2.40;99.90
7004;DHT22;3542;48.812;9.146;2023-03-01T00:13:57;-2.50;99.90
7004;DHT22;3542;48.812;9.146;2023-03-01T00:16:28;-2.50;99.90
7004;DHT22;3542;48.812;9.146;2023-03-01T00:18:55;-2.50;99.90
7004;DHT22;3542;48.812;9.146;2023-03-01T00:21:21;-2.50;99.90
7004;DHT22;3542;48.812;9.146;2023-03-01T00:23:48;-2.50;99.90
7004;DHT22;3542;48.812;9.146;2023-03-01T00:26:15;-2.50;99.90
7004;DHT22;3542;48.812;9.146;2023-03-01T00:28:41;-2.60;99.90
7004;DHT22;3542;48.812;9.146;2023-03-01T00:31:10;-2.50;99.90
7004;DHT22;3542;48.812;9.146;2023-03-01T00:33:36;-2.60;99.90
7004;DHT22;3542;48.812;9.146;2023-03-01T00:36:03;-2.60;99.90
7004;DHT22;3542;48.812;9.146;2023-03-01T00:38:28;-2.60;99.90
7004;DHT22;3542;48.812;9.146;2023-03-01T00:40:54;-2.70;99.90
7004;DHT22;3542;48.812;9.146;2023-03-01T00:43:20;-2.70;99.90
7004;DHT22;3542;48.812;9.146;2023-03-01T00:45:45;-2.80;99.90
7004;DHT22;3542;48.812;9.146;2023-03-01T00:48:11;-2.80;99.90
7004;DHT22;3542;48.812;9.146;2023-03-01T00:50:36;-2.80;99.90
7004;DHT22;3542;48.812;9.146;2023-03-01T00:53:02;-2.80;99.90
7004;DHT22;3542;48.812;9.146;2023-03-01T00:55:27;-2.80;99.90
7004;DHT22;3542;48.812;9.146;2023-03-01T00:57:53;-2.80;99.90
7004;DHT22;3542;48.812;9.146;2023-03-01T01:00:19;-2.80;99.90
7004;DHT22;3542;48.812;9.146;2023-03-01T01:02:45;-2.80;99.90
7004;DHT22;3542;48.812;9.146;2023-03-01T01:05:11;-2.80;99.90
7004;DHT22;3542;48.812;9.146;2023-03-01T01:07:37;-2.80;99.90
7004;DHT22;3542;48.812;9.146;2023-03-01T01:10:03;-2.80;99.90
7004;DHT22;3542;48.812;9.146;2023-03-01T01:12:28;-2.80;99.90
7004;DHT22;3542;48.812;9.146;2023-03-01T01:14:54;-2.80;99.90
7004;DHT22;3542;48.812;9.146;2023-03-01T01:17:19;-2.80;99.90
7004;DHT22;3542;48.812;9.146;2023-03-01T01:19:45;-2.80;99.90
7004;DHT22;3542;48.812;9.146;2023-03-01T01:22:10;-2.90;99.90
7004;DHT22;3542;48.812;9.146;2023-03-01T01:24:36;-2.90;99.90
7004;DHT22;3542;48.812;9.146;2023-03-01T01:27:01;-2.90;99.90
7004;DHT22;3542;48.812;9.146;2023-03-01T01:29:27;-3.00;99.90
7004;DHT22;3542;48.812;9.146;2023-03-01T01:31:52;-3.00;99.90
7004;DHT22;3542;48.812;9.146;2023-03-01T01:34:20;-3.10;99.90
7004;DHT22;3542;48.812;9.146;2023-03-01T01:36:53;-3.10;99.90
7004;DHT22;3542;48.812;9.146;2023-03-01T01:39:20;-3.00;99.90
7004;DHT22;3542;48.812;9.146;2023-03-01T01:41:45;-3.00;99.90
7004;DHT22;3542;48.812;9.146;2023-03-01T01:44:24;-3.00;99.90
7004;DHT22;3542;48.812;9.146;2023-03-01T01:49:35;-3.00;99.90
7004;DHT22;3542;48.812;9.146;2023-03-01T01:52:20;-3.00;99.90
7004;DHT22;3542;48.812;9.146;2023-03-01T01:55:07;-3.00;99.90
7004;DHT22;3542;48.812;9.146;2023-03-01T01:57:40;-3.10;99.90
7004;DHT22;3542;48.812;9.146;2023-03-01T03:30:44;-1.50;99.90
7004;DHT22;3542;48.812;9.146;2023-03-01T03:33:11;-1.50;99.90
7004;DHT22;3542;48.812;9.146;2023-03-01T03:35:45;-1.40;99.90
7004;DHT22;3542;48.812;9.146;2023-03-01T03:38:12;-1.40;99.90
7004;DHT22;3542;48.812;9.146;2023-03-01T03:40:55;-1.40;99.90
7004;DHT22;3542;48.812;9.146;2023-03-01T03:43:27;-1.30;99.90
7004;DHT22;3542;48.812;9.146;2023-03-01T03:45:53;-1.30;99.90
7004;DHT22;3542;48.812;9.146;2023-03-01T03:48:19;-1.30;99.90
7004;DHT22;3542;48.812;9.146;2023-03-01T03:50:51;-1.30;99.90
7004;DHT22;3542;48.812;9.146;2023-03-01T03:53:16;-1.30;99.90
7004;DHT22;3542;48.812;9.146;2023-03-01T03:55:42;-1.20;99.90
7004;DHT22;3542;48.812;9.146;2023-03-01T03:58:10;-1.20;99.90
7004;DHT22;3542;48.812;9.146;2023-03-01T04:00:39;-1.20;99.90
7004;DHT22;3542;48.812;9.146;2023-03-01T04:03:05;-1.10;99.90
7004;DHT22;3542;48.812;9.146;2023-03-01T04:05:31;-1.10;99.90
7004;DHT22;3542;48.812;9.146;2023-03-01T04:07:57;-1.10;99.90
7004;DHT22;3542;48.812;9.146;2023-03-01T04:10:30;-1.10;99.90
7004;DHT22;3542;48.812;9.146;2023-03-01T04:12:56;-1.10;99.90
7004;DHT22;3542;48.812;9.146;2023-03-01T04:15:23;-1.10;99.90
7004;DHT22;3542;48.812;9.146;2023-03-01T04:17:50;-1.10;99.90
7004;DHT22;3542;48.812;9.146;2023-03-01T04:20:19;-1.10;99.90
7004;DHT22;3542;48.812;9.146;2023-03-01T04:25:22;-0.90;99.90
7004;DHT22;3542;48.812;9.146;2023-03-01T04:27:48;-0.90;99.90
7004;DHT22;3542;48.812;9.146;2023-03-01T04:30:14;-0.90;99.90
7004;DHT22;3542;48.812;9.146;2023-03-01T04:32:40;-0.90;99.90
7004;DHT22;3542;48.812;9.146;2023-03-01T04:35:05;-0.80;99.90
7004;DHT22;3542;48.812;9.146;2023-03-01T04:37:31;-0.80;99.90
7004;DHT22;3542;48.812;9.146;2023-03-01T04:39:56;-0.80;99.90
7004;DHT22;3542;48.812;9.146;2023-03-01T04:42:22;-0.70;99.90
7004;DHT22;3542;48.812;9.146;2023-03-01T04:44:48;-0.70;99.90
7004;DHT22;3542;48.812;9.146;2023-03-01T04:47:16;-0.70;99.90
7004;DHT22;3542;48.812;9.146;2023-03-01T04:49:42;-0.70;99.90
7004;DHT22;3542;48.812;9.146;2023-03-01T04:52:07;-0.70;99.90
7004;DHT22;3542;48.812;9.146;2023-03-01T04:54:34;-0.70;99.90
7004;DHT22;3542;48.812;9.146;2023-03-01T04:57:00;-0.70;99.90
7004;DHT22;3542;48.812;9.146;2023-03-01T04:59:25;-0.70;99.90
7004;DHT22;3542;48.812;9.146;2023-03-01T05:01:52;-0.60;99.90
7004;DHT22;3542;48.812;9.146;2023-03-01T05:04:21;-0.60;99.90
7004;DHT22;3542;48.812;9.146;2023-03-01T05:06:46;-0.60;99.90
7004;DHT22;3542;48.812;9.146;2023-03-01T05:09:12;-0.60;99.90
7004;DHT22;3542;48.812;9.146;2023-03-01T05:11:37;-0.60;99.90
7004;DHT22;3542;48.812;9.146;2023-03-01T05:14:07;-0.60;99.90
7004;DHT22;3542;48.812;9.146;2023-03-01T05:16:33;-0.60;99.90
7004;DHT22;3542;48.812;9.146;2023-03-01T05:19:00;-0.50;99.90
7004;DHT22;3542;48.812;9.146;2023-03-01T05:21:25;-0.50;99.90
7004;DHT22;3542;48.812;9.146;2023-03-01T05:23:51;-0.40;99.90
7004;DHT22;3542;48.812;9.146;2023-03-01T05:26:18;-0.40;99.90
7004;DHT22;3542;48.812;9.146;2023-03-01T05:28:45;-0.30;99.90
7004;DHT22;3542;48.812;9.146;2023-03-01T05:31:10;-0.20;99.90
7004;DHT22;3542;48.812;9.146;2023-03-01T05:33:37;-0.10;99.90
7004;DHT22;3542;48.812;9.146;2023-03-01T05:36:03;-0.10;99.90
7004;DHT22;3542;48.812;9.146;2023-03-01T05:38:29;0.00;99.90
7004;DHT22;3542;48.812;9.146;2023-03-01T05:40:55;-0.10;99.90
7004;DHT22;3542;48.812;9.146;2023-03-01T05:43:20;-0.10;99.90
7004;DHT22;3542;48.812;9.146;2023-03-01T05:45:46;0.00;99.90
7004;DHT22;3542;48.812;9.146;2023-03-01T05:48:12;-0.10;99.90
7004;DHT22;3542;48.812;9.146;2023-03-01T05:50:41;0.00;99.90
7004;DHT22;3542;48.812;9.146;2023-03-01T05:53:10;0.10;99.90
7004;DHT22;3542;48.812;9.146;2023-03-01T05:55:37;0.10;99.90
7004;DHT22;3542;48.812;9.146;2023-03-01T05:58:05;0.20;99.90
7004;DHT22;3542;48.812;9.146;2023-03-01T06:00:31;0.20;99.90
7004;DHT22;3542;48.812;9.146;2023-03-01T06:02:58;0.30;99.90
7004;DHT22;3542;48.812;9.146;2023-03-01T06:05:25;0.20;99.90
7004;DHT22;3542;48.812;9.146;2023-03-01T06:07:51;0.30;99.90
7004;DHT22;3542;48.812;9.146;2023-03-01T06:10:18;0.30;99.90
7004;DHT22;3542;48.812;9.146;2023-03-01T06:12:44;0.30;99.90
7004;DHT22;3542;48.812;9.146;2023-03-01T06:15:11;0.30;99.90
7004;DHT22;3542;48.812;9.146;2023-03-01T06:17:38;0.30;99.90
7004;DHT22;3542;48.812;9.146;2023-03-01T06:20:08;0.20;99.90
7004;DHT22;3542;48.812;9.146;2023-03-01T06:22:34;0.20;99.90
7004;DHT22;3542;48.812;9.146;2023-03-01T06:25:00;0.20;99.90
7004;DHT22;3542;48.812;9.146;2023-03-01T06:27:26;0.30;99.90
7004;DHT22;3542;48.812;9.146;2023-03-01T06:29:52;0.20;99.90
7004;DHT22;3542;48.812;9.146;2023-03-01T06:32:17;0.30;99.90
7004;DHT22;3542;48.812;9.146;2023-03-01T06:34:43;0.30;99.90
7004;DHT22;3542;48.812;9.146;2023-03-01T06:37:09;0.30;99.90
7004;DHT22;3542;48.812;9.146;2023-03-01T06:39:35;0.30;99.90
7004;DHT22;3542;48.812;9.146;2023-03-01T06:42:00;0.30;99.90
7004;DHT22;3542;48.812;9.146;2023-03-01T06:44:26;0.30;99.90
7004;DHT22;3542;48.812;9.146;2023-03-01T06:46:52;0.30;99.90
7004;DHT22;3542;48.812;9.146;2023-03-01T06:49:18;0.30;99.90
7004;DHT22;3542;48.812;9.146;2023-03-01T06:51:44;0.40;99.90
7004;DHT22;3542;48.812;9.146;2023-03-01T06:54:09;0.60;99.90
7004;DHT22;3542;48.812;9.146;2023-03-01T06:56:35;0.70;99.90
7004;DHT22;3542;48.812;9.146;2023-03-01T06:59:01;0.80;99.90
7004;DHT22;3542;48.812;9.146;2023-03-01T07:01:28;0.90;99.90
7004;DHT22;3542;48.812;9.146;2023-03-01T07:03:54;1.10;99.90
7004;DHT22;3542;48.812;9.146;2023-03-01T07:06:20;1.30;99.90
7004;DHT22;3542;48.812;9.146;2023-03-01T07:08:45;1.50;99.90
7004;DHT22;3542;48.812;9.146;2023-03-01T07:11:11;1.50;99.90
7004;DHT22;3542;48.812;9.146;2023-03-01T07:13:36;1.60;99.90
7004;DHT22;3542;48.812;9.146;2023-03-01T07:16:02;1.80;99.90
7004;DHT22;3542;48.812;9.146;2023-03-01T07:18:27;2.20;99.90
7004;DHT22;3542;48.812;9.146;2023-03-01T07:20:53;3.20;99.90
7004;DHT22;3542;48.812;9.146;2023-03-01T07:23:18;4.00;99.90
7004;DHT22;3542;48.812;9.146;2023-03-01T07:25:44;4.20;99.90
7004;DHT22;3542;48.812;9.146;2023-03-01T07:28:09;4.30;99.90
7004;DHT22;3542;48.812;9.146;2023-03-01T07:30:35;5.10;99.90
7004;DHT22;3542;48.812;9.146;2023-03-01T07:33:00;6.10;99.90
7004;DHT22;3542;48.812;9.146;2023-03-01T07:35:26;6.80;99.90
7004;DHT22;3542;48.812;9.146;2023-03-01T07:37:52;7.90;99.90
7004;DHT22;3542;48.812;9.146;2023-03-01T07:40:21;8.00;99.90
7004;DHT22;3542;48.812;9.146;2023-03-01T07:42:47;8.40;99.90
7004;DHT22;3542;48.812;9.146;2023-03-01T07:45:12;8.80;99.90
7004;DHT22;3542;48.812;9.146;2023-03-01T07:47:39;8.90;99.90
7004;DHT22;3542;48.812;9.146;2023-03-01T07:50:05;8.90;99.90
7004;DHT22;3542;48.812;9.146;2023-03-01T07:52:31;8.80;99.90
7004;DHT22;3542;48.812;9.146;2023-03-01T07:54:57;8.60;99.90
7004;DHT22;3542;48.812;9.146;2023-03-01T07:57:23;8.30;99.90
7004;DHT22;3542;48.812;9.146;2023-03-01T07:59:49;7.70;99.90
7004;DHT22;3542;48.812;9.146;2023-03-01T08:02:14;7.70;99.90
7004;DHT22;3542;48.812;9.146;2023-03-01T08:04:41;7.40;99.90
7004;DHT22;3542;48.812;9.146;2023-03-01T08:07:06;6.90;99.90
7004;DHT22;3542;48.812;9.146;2023-03-01T08:09:34;6.80;99.90
7004;DHT22;3542;48.812;9.146;2023-03-01T08:12:01;6.70;99.90
7004;DHT22;3542;48.812;9.146;2023-03-01T08:14:26;6.90;99.90
7004;DHT22;3542;48.812;9.146;2023-03-01T08:16:52;6.80;99.90
7004;DHT22;3542;48.812;9.146;2023-03-01T08:19:17;6.80;99.90
7004;DHT22;3542;48.812;9.146;2023-03-01T08:21:43;6.90;99.90
7004;DHT22;3542;48.812;9.146;2023-03-01T08:24:09;6.90;99.90
7004;DHT22;3542;48.812;9.146;2023-03-01T08:26:35;6.80;99.90
7004;DHT22;3542;48.812;9.146;2023-03-01T08:29:02;6.80;99.90
7004;DHT22;3542;48.812;9.146;2023-03-01T08:31:34;7.00;99.90
7004;DHT22;3542;48.812;9.146;2023-03-01T08:34:03;6.50;99.90
7004;DHT22;3542;48.812;9.146;2023-03-01T08:36:35;6.50;99.90
7004;DHT22;3542;48.812;9.146;2023-03-01T08:39:02;6.60;99.90
7004;DHT22;3542;48.812;9.146;2023-03-01T08:41:29;6.70;99.90
7004;DHT22;3542;48.812;9.146;2023-03-01T08:43:55;7.00;99.90
7004;DHT22;3542;48.812;9.146;2023-03-01T08:46:28;6.90;99.90
7004;DHT22;3542;48.812;9.146;2023-03-01T08:48:54;7.10;99.90
7004;DHT22;3542;48.812;9.146;2023-03-01T08:51:20;7.40;99.90
7004;DHT22;3542;48.812;9.146;2023-03-01T08:53:46;7.30;99.90
7004;DHT22;3542;48.812;9.146;2023-03-01T08:56:13;7.50;99.90
7004;DHT22;3542;48.812;9.146;2023-03-01T08:58:39;7.80;99.90
7004;DHT22;3542;48.812;9.146;2023-03-01T09:01:09;8.00;99.90
7004;DHT22;3542;48.812;9.146;2023-03-01T09:03:36;8.20;99.90
7004;DHT22;3542;48.812;9.146;2023-03-01T09:06:03;8.40;99.90
7004;DHT22;3542;48.812;9.146;2023-03-01T09:08:28;8.60;99.90
7004;DHT22;3542;48.812;9.146;2023-03-01T09:10:55;8.60;99.90
7004;DHT22;3542;48.812;9.146;2023-03-01T09:13:20;8.50;99.90
7004;DHT22;3542;48.812;9.146;2023-03-01T09:15:48;8.20;99.90
7004;DHT22;3542;48.812;9.146;2023-03-01T09:18:14;8.40;99.90
7004;DHT22;3542;48.812;9.146;2023-03-01T09:20:39;8.50;99.90
7004;DHT22;3542;48.812;9.146;2023-03-01T09:23:05;8.50;99.90
7004;DHT22;3542;48.812;9.146;2023-03-01T09:25:31;8.80;99.90
7004;DHT22;3542;48.812;9.146;2023-03-01T09:27:56;9.00;99.90
7004;DHT22;3542;48.812;9.146;2023-03-01T09:30:22;8.90;99.90
7004;DHT22;3542;48.812;9.146;2023-03-01T09:32:47;8.90;99.90
7004;DHT22;3542;48.812;9.146;2023-03-01T09:35:13;8.90;99.90
7004;DHT22;3542;48.812;9.146;2023-03-01T09:37:38;9.10;99.90
7004;DHT22;3542;48.812;9.146;2023-03-01T09:40:14;9.10;99.90
7004;DHT22;3542;48.812;9.146;2023-03-01T09:43:00;9.40;99.90
7004;DHT22;3542;48.812;9.146;2023-03-01T09:45:34;9.50;99.90
7004;DHT22;3542;48.812;9.146;2023-03-01T09:48:01;9.40;99.90
7004;DHT22;3542;48.812;9.146;2023-03-01T09:50:33;9.30;99.90
7004;DHT22;3542;48.812;9.146;2023-03-01T09:53:13;9.40;99.90
7004;DHT22;3542;48.812;9.146;2023-03-01T09:55:52;9.60;99.90
7004;DHT22;3542;48.812;9.146;2023-03-01T10:01:28;10.00;99.90
7004;DHT22;3542;48.812;9.146;2023-03-01T10:06:35;10.30;99.90
7004;DHT22;3542;48.812;9.146;2023-03-01T10:09:05;10.00;99.90
7004;DHT22;3542;48.812;9.146;2023-03-01T10:11:41;10.40;99.90
7004;DHT22;3542;48.812;9.146;2023-03-01T10:17:02;10.20;99.90
7004;DHT22;3542;48.812;9.146;2023-03-01T10:21:54;10.70;99.90
7004;DHT22;3542;48.812;9.146;2023-03-01T10:24:22;10.70;99.90
7004;DHT22;3542;48.812;9.146;2023-03-01T10:26:53;10.90;99.90
7004;DHT22;3542;48.812;9.146;2023-03-01T10:29:29;11.30;99.90
7004;DHT22;3542;48.812;9.146;2023-03-01T10:31:56;11.20;99.90
7004;DHT22;3542;48.812;9.146;2023-03-01T10:34:30;11.50;99.90
7004;DHT22;3542;48.812;9.146;2023-03-01T10:37:01;11.00;99.90
7004;DHT22;3542;48.812;9.146;2023-03-01T10:39:27;11.10;99.90
7004;DHT22;3542;48.812;9.146;2023-03-01T10:41:56;11.40;99.90
7004;DHT22;3542;48.812;9.146;2023-03-01T10:44:41;11.70;99.90
7004;DHT22;3542;48.812;9.146;2023-03-01T10:47:26;11.80;99.90
7004;DHT22;3542;48.812;9.146;2023-03-01T10:52:21;12.60;98.70
7004;DHT22;3542;48.812;9.146;2023-03-01T10:55:23;12.00;98.20
7004;DHT22;3542;48.812;9.146;2023-03-01T10:57:49;12.00;99.00
7004;DHT22;3542;48.812;9.146;2023-03-01T11:00:22;12.10;99.00
7004;DHT22;3542;48.812;9.146;2023-03-01T11:05:25;12.00;98.00
7004;DHT22;3542;48.812;9.146;2023-03-01T11:07:52;11.80;99.80
7004;DHT22;3542;48.812;9.146;2023-03-01T11:10:26;11.60;98.40
7004;DHT22;3542;48.812;9.146;2023-03-01T11:12:53;11.90;98.50
7004;DHT22;3542;48.812;9.146;2023-03-01T11:15:23;12.10;98.10
7004;DHT22;3542;48.812;9.146;2023-03-01T11:17:49;12.00;97.50
7004;DHT22;3542;48.812;9.146;2023-03-01T11:20:25;11.80;97.90
7004;DHT22;3542;48.812;9.146;2023-03-01T11:22:58;11.60;97.30
7004;DHT22;3542;48.812;9.146;2023-03-01T11:25:27;11.60;98.30
7004;DHT22;3542;48.812;9.146;2023-03-01T11:27:54;11.40;97.20
7004;DHT22;3542;48.812;9.146;2023-03-01T11:33:18;11.30;98.50
7004;DHT22;3542;48.812;9.146;2023-03-01T11:35:58;11.00;98.20
7004;DHT22;3542;48.812;9.146;2023-03-01T11:38:26;11.00;98.40
7004;DHT22;3542;48.812;9.146;2023-03-01T11:57:43;10.70;99.30
7004;DHT22;3542;48.812;9.146;2023-03-01T12:00:37;10.30;99.90
7004;DHT22;3542;48.812;9.146;2023-03-01T12:03:33;10.30;99.90
7004;DHT22;3542;48.812;9.146;2023-03-01T12:20:39;10.00;99.90
7004;DHT22;3542;48.812;9.146;2023-03-01T12:28:48;9.80;99.90
7004;DHT22;3542;48.812;9.146;2023-03-01T12:34:08;9.20;99.90
7004;DHT22;3542;48.812;9.146;2023-03-01T12:36:52;9.30;99.90
7004;DHT22;3542;48.812;9.146;2023-03-01T12:42:30;9.10;99.90
7004;DHT22;3542;48.812;9.146;2023-03-01T12:47:55;9.40;99.90
7004;DHT22;3542;48.812;9.146;2023-03-01T12:50:26;9.50;99.90
7004;DHT22;3542;48.812;9.146;2023-03-01T12:52:56;9.70;99.90
7004;DHT22;3542;48.812;9.146;2023-03-01T12:55:37;9.70;99.90
7004;DHT22;3542;48.812;9.146;2023-03-01T13:01:22;9.70;99.90
7004;DHT22;3542;48.812;9.146;2023-03-01T13:17:53;9.70;99.90
7004;DHT22;3542;48.812;9.146;2023-03-01T13:23:12;9.70;99.90
7004;DHT22;3542;48.812;9.146;2023-03-01T13:31:00;9.40;99.90
7004;DHT22;3542;48.812;9.146;2023-03-01T13:35:52;9.10;99.90
7004;DHT22;3542;48.812;9.146;2023-03-01T13:41:08;9.20;99.90
7004;DHT22;3542;48.812;9.146;2023-03-01T13:43:38;9.10;99.90
7004;DHT22;3542;48.812;9.146;2023-03-01T13:46:22;9.00;99.90
7004;DHT22;3542;48.812;9.146;2023-03-01T13:48:54;8.90;99.90
7004;DHT22;3542;48.812;9.146;2023-03-01T13:51:26;8.90;99.90
7004;DHT22;3542;48.812;9.146;2023-03-01T13:53:54;9.00;99.90
7004;DHT22;3542;48.812;9.146;2023-03-01T13:56:36;9.00;99.90
7004;DHT22;3542;48.812;9.146;2023-03-01T13:59:17;8.90;99.90
7004;DHT22;3542;48.812;9.146;2023-03-01T14:01:43;8.70;99.90
7004;DHT22;3542;48.812;9.146;2023-03-01T14:04:35;8.70;99.90
7004;DHT22;3542;48.812;9.146;2023-03-01T14:07:22;8.80;99.90
7004;DHT22;3542;48.812;9.146;2023-03-01T14:09:54;8.90;99.90
7004;DHT22;3542;48.812;9.146;2023-03-01T14:20:20;8.70;99.90
7004;DHT22;3542;48.812;9.146;2023-03-01T14:22:47;8.70;99.90
7004;DHT22;3542;48.812;9.146;2023-03-01T14:25:33;8.60;99.90
7004;DHT22;3542;48.812;9.146;2023-03-01T14:28:13;8.50;99.90
7004;DHT22;3542;48.812;9.146;2023-03-01T14:35:56;8.30;99.90
7004;DHT22;3542;48.812;9.146;2023-03-01T14:38:29;8.30;99.90
7004;DHT22;3542;48.812;9.146;2023-03-01T14:40:58;8.20;99.90
7004;DHT22;3542;48.812;9.146;2023-03-01T14:43:24;8.20;99.90
7004;DHT22;3542;48.812;9.146;2023-03-01T14:45:53;8.10;99.90
7004;DHT22;3542;48.812;9.146;2023-03-01T14:48:18;8.10;99.90
7004;DHT22;3542;48.812;9.146;2023-03-01T14:50:45;8.20;99.90
7004;DHT22;3542;48.812;9.146;2023-03-01T14:53:19;8.10;99.90
7004;DHT22;3542;48.812;9.146;2023-03-01T14:55:48;8.10;99.90
7004;DHT22;3542;48.812;9.146;2023-03-01T14:58:19;8.00;99.90
7004;DHT22;3542;48.812;9.146;2023-03-01T15:00:58;8.00;99.90
7004;DHT22;3542;48.812;9.146;2023-03-01T15:03:36;8.00;99.90
7004;DHT22;3542;48.812;9.146;2023-03-01T15:06:06;7.90;99.90
7004;DHT22;3542;48.812;9.146;2023-03-01T15:08:32;7.80;99.90
7004;DHT22;3542;48.812;9.146;2023-03-01T15:11:21;7.70;99.90
7004;DHT22;3542;48.812;9.146;2023-03-01T15:13:48;7.80;99.90
7004;DHT22;3542;48.812;9.146;2023-03-01T15:16:23;7.80;99.90
7004;DHT22;3542;48.812;9.146;2023-03-01T15:18:52;7.70;99.90
7004;DHT22;3542;48.812;9.146;2023-03-01T15:21:23;7.60;99.90
7004;DHT22;3542;48.812;9.146;2023-03-01T15:23:54;7.60;99.90
7004;DHT22;3542;48.812;9.146;2023-03-01T15:26:30;7.60;99.90
7004;DHT22;3542;48.812;9.146;2023-03-01T15:28:58;7.50;99.90
7004;DHT22;3542;48.812;9.146;2023-03-01T15:31:25;7.50;99.90
7004;DHT22;3542;48.812;9.146;2023-03-01T15:33:51;7.50;99.90
7004;DHT22;3542;48.812;9.146;2023-03-01T15:36:37;7.50;99.90
7004;DHT22;3542;48.812;9.146;2023-03-01T15:39:05;7.60;99.90
7004;DHT22;3542;48.812;9.146;2023-03-01T15:41:51;7.60;99.90
7004;DHT22;3542;48.812;9.146;2023-03-01T15:44:28;7.50;99.90
7004;DHT22;3542;48.812;9.146;2023-03-01T15:46:54;7.50;99.90
7004;DHT22;3542;48.812;9.146;2023-03-01T15:49:39;7.50;99.90
7004;DHT22;3542;48.812;9.146;2023-03-01T15:52:10;7.40;99.90
7004;DHT22;3542;48.812;9.146;2023-03-01T15:54:39;7.40;99.90
7004;DHT22;3542;48.812;9.146;2023-03-01T15:57:09;7.40;99.90
7004;DHT22;3542;48.812;9.146;2023-03-01T15:59:37;7.30;99.90
7004;DHT22;3542;48.812;9.146;2023-03-01T16:02:09;7.30;99.90
7004;DHT22;3542;48.812;9.146;2023-03-01T16:04:34;7.30;99.90
7004;DHT22;3542;48.812;9.146;2023-03-01T16:07:00;7.20;99.90
7004;DHT22;3542;48.812;9.146;2023-03-01T16:09:26;7.20;99.90
7004;DHT22;3542;48.812;9.146;2023-03-01T16:11:53;7.20;99.90
7004;DHT22;3542;48.812;9.146;2023-03-01T16:14:19;7.20;99.90
7004;DHT22;3542;48.812;9.146;2023-03-01T16:16:45;7.10;99.90
7004;DHT22;3542;48.812;9.146;2023-03-01T16:19:11;7.10;99.90
7004;DHT22;3542;48.812;9.146;2023-03-01T16:21:37;7.10;99.90
7004;DHT22;3542;48.812;9.146;2023-03-01T16:24:03;7.10;99.90
7004;DHT22;3542;48.812;9.146;2023-03-01T16:26:29;7.00;99.90
7004;DHT22;3542;48.812;9.146;2023-03-01T16:28:56;6.90;99.90
7004;DHT22;3542;48.812;9.146;2023-03-01T16:31:22;7.00;99.90
7004;DHT22;3542;48.812;9.146;2023-03-01T16:33:48;6.90;99.90
7004;DHT22;3542;48.812;9.146;2023-03-01T16:36:17;6.80;99.90
7004;DHT22;3542;48.812;9.146;2023-03-01T16:38:43;6.80;99.90
7004;DHT22;3542;48.812;9.146;2023-03-01T16:41:14;6.70;99.90
7004;DHT22;3542;48.812;9.146;2023-03-01T16:43:40;6.70;99.90
7004;DHT22;3542;48.812;9.146;2023-03-01T16:46:14;6.60;99.90
7004;DHT22;3542;48.812;9.146;2023-03-01T16:48:40;6.60;99.90
7004;DHT22;3542;48.812;9.146;2023-03-01T16:51:06;6.50;99.90
7004;DHT22;3542;48.812;9.146;2023-03-01T16:53:33;6.50;99.90
7004;DHT22;3542;48.812;9.146;2023-03-01T16:56:01;6.50;99.90
7004;DHT22;3542;48.812;9.146;2023-03-01T16:58:27;6.40;99.90
7004;DHT22;3542;48.812;9.146;2023-03-01T17:00:53;6.40;99.90
7004;DHT22;3542;48.812;9.146;2023-03-01T17:03:24;6.30;99.90
7004;DHT22;3542;48.812;9.146;2023-03-01T17:05:51;6.20;99.90
7004;DHT22;3542;48.812;9.146;2023-03-01T17:08:17;6.20;99.90
7004;DHT22;3542;48.812;9.146;2023-03-01T17:10:43;6.20;99.90
7004;DHT22;3542;48.812;9.146;2023-03-01T17:13:09;6.10;99.90
7004;DHT22;3542;48.812;9.146;2023-03-01T17:15:38;6.10;99.90
7004;DHT22;3542;48.812;9.146;2023-03-01T17:18:05;6.00;99.90
7004;DHT22;3542;48.812;9.146;2023-03-01T17:20:30;5.90;99.90
7004;DHT22;3542;48.812;9.146;2023-03-01T17:22:56;5.90;99.90
7004;DHT22;3542;48.812;9.146;2023-03-01T17:25:21;5.80;99.90
7004;DHT22;3542;48.812;9.146;2023-03-01T17:27:47;5.80;99.90
7004;DHT22;3542;48.812;9.146;2023-03-01T17:30:13;5.70;99.90
7004;DHT22;3542;48.812;9.146;2023-03-01T17:32:39;5.60;99.90
7004;DHT22;3542;48.812;9.146;2023-03-01T17:35:05;5.50;99.90
7004;DHT22;3542;48.812;9.146;2023-03-01T17:37:32;5.50;99.90
7004;DHT22;3542;48.812;9.146;2023-03-01T17:39:58;5.40;99.90
7004;DHT22;3542;48.812;9.146;2023-03-01T17:42:23;5.30;99.90
7004;DHT22;3542;48.812;9.146;2023-03-01T17:44:49;5.30;99.90
7004;DHT22;3542;48.812;9.146;2023-03-01T17:47:14;5.20;99.90
7004;DHT22;3542;48.812;9.146;2023-03-01T17:49:39;5.10;99.90
7004;DHT22;3542;48.812;9.146;2023-03-01T17:52:05;5.10;99.90
7004;DHT22;3542;48.812;9.146;2023-03-01T17:54:31;5.00;99.90
7004;DHT22;3542;48.812;9.146;2023-03-01T17:56:57;4.90;99.90
7004;DHT22;3542;48.812;9.146;2023-03-01T17:59:23;4.90;99.90
7004;DHT22;3542;48.812;9.146;2023-03-01T18:01:49;4.80;99.90
7004;DHT22;3542;48.812;9.146;2023-03-01T18:04:14;4.70;99.90
7004;DHT22;3542;48.812;9.146;2023-03-01T18:06:40;4.70;99.90
7004;DHT22;3542;48.812;9.146;2023-03-01T18:09:06;4.60;99.90
7004;DHT22;3542;48.812;9.146;2023-03-01T18:11:32;4.60;99.90
7004;DHT22;3542;48.812;9.146;2023-03-01T18:13:58;4.40;99.90
7004;DHT22;3542;48.812;9.146;2023-03-01T18:16:24;4.30;99.90
7004;DHT22;3542;48.812;9.146;2023-03-01T18:18:54;4.30;99.90
7004;DHT22;3542;48.812;9.146;2023-03-01T18:21:20;4.20;99.90
7004;DHT22;3542;48.812;9.146;2023-03-01T18:23:45;4.10;99.90
7004;DHT22;3542;48.812;9.146;2023-03-01T18:26:12;4.10;99.90
7004;DHT22;3542;48.812;9.146;2023-03-01T18:28:40;4.00;99.90
7004;DHT22;3542;48.812;9.146;2023-03-01T18:31:08;3.90;99.90
7004;DHT22;3542;48.812;9.146;2023-03-01T18:33:36;3.90;99.90
7004;DHT22;3542;48.812;9.146;2023-03-01T18:36:03;3.80;99.90
7004;DHT22;3542;48.812;9.146;2023-03-01T18:38:28;3.70;99.90
7004;DHT22;3542;48.812;9.146;2023-03-01T18:40:55;3.60;99.90
7004;DHT22;3542;48.812;9.146;2023-03-01T18:43:21;3.50;99.90
7004;DHT22;3542;48.812;9.146;2023-03-01T18:45:48;3.40;99.90
7004;DHT22;3542;48.812;9.146;2023-03-01T18:48:14;3.30;99.90
7004;DHT22;3542;48.812;9.146;2023-03-01T18:50:40;3.20;99.90
7004;DHT22;3542;48.812;9.146;2023-03-01T18:53:06;3.20;99.90
7004;DHT22;3542;48.812;9.146;2023-03-01T18:55:36;3.00;99.90
7004;DHT22;3542;48.812;9.146;2023-03-01T18:58:02;3.00;99.90
7004;DHT22;3542;48.812;9.146;2023-03-01T19:00:28;2.90;99.90
7004;DHT22;3542;48.812;9.146;2023-03-01T19:02:53;2.80;99.90
7004;DHT22;3542;48.812;9.146;2023-03-01T19:05:19;2.80;99.90
7004;DHT22;3542;48.812;9.146;2023-03-01T19:07:44;2.70;99.90
7004;DHT22;3542;48.812;9.146;2023-03-01T19:10:10;2.70;99.90
7004;DHT22;3542;48.812;9.146;2023-03-01T19:12:36;2.60;99.90
7004;DHT22;3542;48.812;9.146;2023-03-01T19:15:02;2.50;99.90
7004;DHT22;3542;48.812;9.146;2023-03-01T19:17:28;2.40;99.90
7004;DHT22;3542;48.812;9.146;2023-03-01T19:19:58;2.40;99.90
7004;DHT22;3542;48.812;9.146;2023-03-01T19:22:25;2.30;99.90
7004;DHT22;3542;48.812;9.146;2023-03-01T19:24:51;2.20;99.90
7004;DHT22;3542;48.812;9.146;2023-03-01T19:27:17;2.20;99.90
7004;DHT22;3542;48.812;9.146;2023-03-01T19:29:42;2.10;99.90
7004;DHT22;3542;48.812;9.146;2023-03-01T19:32:08;2.00;99.90
7004;DHT22;3542;48.812;9.146;2023-03-01T19:34:33;2.00;99.90
7004;DHT22;3542;48.812;9.146;2023-03-01T19:37:00;2.00;99.90
7004;DHT22;3542;48.812;9.146;2023-03-01T19:39:25;1.90;99.90
7004;DHT22;3542;48.812;9.146;2023-03-01T19:41:52;1.90;99.90
7004;DHT22;3542;48.812;9.146;2023-03-01T19:44:18;1.80;99.90